メインページ
METAR-TAF:

METAR-TAF

空港 :

Fort Drum, ニューヨーク, アメリカ合衆国

緯度: 44-03N, 経度: 075-44W, 海抜: 207m

現時点の気象観測

当レポートは43分前の07:24(UTC)に作成
南東の風 11kt
気温 -1°C
湿度 74%
気圧 1023 hPa
視程: 16.1km
高度700ftの雲はほとんどない
高度4100ftの雲はほとんどない
高度5000ftの曇り
小雪

METAR: KGTB 250724Z 13011KT 10SM -SN FEW007 FEW041 OVC050 M01/M05 A3020 RMK AO2A UPB21 SLP236

時間: 03:07 (08:07 UTC)

予報

当レポートは6時間44分前の01:23(UTC)に作成
予報は25日の 01時(UTC)から 26日の 07時(UTC)まで有効
変向風 6kt
視程10km以上
高度8000ftの雲は散在している
高度12000ftの千切れ雲あり
25日の 05時(UTC)から 25日の 06時(UTC)まで徐々に
の風 9kt
視程: 9000m
高度7000ftの千切れ雲あり
小雪
25日の 08時(UTC)から 25日の 09時(UTC)まで徐々に
の風 12kt、最大18ktの突風を伴う
視程: 9000m
高度1000ftの千切れ雲あり
高度2000ftの曇り
小雪
25日の 11時(UTC)から 25日の 12時(UTC)まで徐々に
の風 15kt、最大25ktの突風を伴う
視程10km以上
高度1500ftの雲は散在している
高度8000ftの千切れ雲あり
25日の 20時(UTC)から 25日の 21時(UTC)まで徐々に
の風 9kt
視程: 9000m
高度1500ftの雲は散在している
高度2500ftの千切れ雲あり
弱いにわか雨

TAF: KGTB 250123Z 2501/2607 VRB06KT 9999 SCT080 BKN120 QNH3036INS BECMG 2505/2506 17009KT 9000 -SN BKN070 650703 QNH3029INS BECMG 2508/2509 17012G18KT 9000 -SN BKN010 OVC020 650208 QNH3021INS BECMG 2511/2512 17015G25KT 9999 NSW SCT015 BKN080 650802 QNH3015INS BECMG 2520/2521 19009KT 9000 -SHRA SCT015 BKN025 QNH3006INS TX06/2519Z TNM05/2501Z

4,000以上の空港の気象観測と天気予報(METAR報とTAF報)

利用可能な観測所は地図上に黄色い丸と赤い丸で示す。

丸の上にカーソルを重ねると観測所名を参照できる。

次にクリックすると気象観測と天気予報を参照できる。

マップの切り替え:黒色「×」印の緑ボタンをクリックして拡大、「-」印の緑ボタンをクリックして縮小、緑色の三角印をクリックして隣りの地図に切り替え


METAR-TAF: